sensor_id;sensor_type;location;lat;lon;timestamp;P1;durP1;ratioP1;P2;durP2;ratioP2
22250;SDS011;59348;52.158;5.588;2023-05-07T00:01:03;7.45;;;6.10;;
22250;SDS011;59348;52.158;5.588;2023-05-07T00:03:31;7.65;;;6.10;;
22250;SDS011;59348;52.158;5.588;2023-05-07T00:05:59;7.20;;;5.88;;
22250;SDS011;59348;52.158;5.588;2023-05-07T00:08:27;8.00;;;5.90;;
22250;SDS011;59348;52.158;5.588;2023-05-07T00:10:54;9.02;;;6.22;;
22250;SDS011;59348;52.158;5.588;2023-05-07T00:13:21;9.07;;;7.45;;
22250;SDS011;59348;52.158;5.588;2023-05-07T00:15:48;9.27;;;7.00;;
22250;SDS011;59348;52.158;5.588;2023-05-07T00:18:15;7.32;;;6.53;;
22250;SDS011;59348;52.158;5.588;2023-05-07T00:20:46;7.57;;;6.75;;
22250;SDS011;59348;52.158;5.588;2023-05-07T00:23:14;8.32;;;7.10;;
22250;SDS011;59348;52.158;5.588;2023-05-07T00:25:41;10.13;;;7.15;;
22250;SDS011;59348;52.158;5.588;2023-05-07T00:28:08;10.00;;;6.55;;
22250;SDS011;59348;52.158;5.588;2023-05-07T00:30:36;9.50;;;7.50;;
22250;SDS011;59348;52.158;5.588;2023-05-07T00:33:03;11.00;;;7.65;;
22250;SDS011;59348;52.158;5.588;2023-05-07T00:35:30;7.65;;;6.90;;
22250;SDS011;59348;52.158;5.588;2023-05-07T00:37:57;8.65;;;7.20;;
22250;SDS011;59348;52.158;5.588;2023-05-07T00:40:26;8.40;;;7.47;;
22250;SDS011;59348;52.158;5.588;2023-05-07T00:42:53;7.60;;;6.63;;
22250;SDS011;59348;52.158;5.588;2023-05-07T00:45:23;11.40;;;7.32;;
22250;SDS011;59348;52.158;5.588;2023-05-07T00:47:53;9.00;;;7.13;;
22250;SDS011;59348;52.158;5.588;2023-05-07T00:50:21;8.65;;;7.07;;
22250;SDS011;59348;52.158;5.588;2023-05-07T00:52:48;8.38;;;7.15;;
22250;SDS011;59348;52.158;5.588;2023-05-07T00:55:15;8.07;;;7.25;;
22250;SDS011;59348;52.158;5.588;2023-05-07T00:57:44;10.57;;;7.40;;
22250;SDS011;59348;52.158;5.588;2023-05-07T01:00:11;8.95;;;7.93;;
22250;SDS011;59348;52.158;5.588;2023-05-07T01:02:39;9.65;;;7.97;;
22250;SDS011;59348;52.158;5.588;2023-05-07T01:05:07;9.75;;;7.70;;
22250;SDS011;59348;52.158;5.588;2023-05-07T01:07:35;11.15;;;8.13;;
22250;SDS011;59348;52.158;5.588;2023-05-07T01:10:02;8.90;;;8.00;;
22250;SDS011;59348;52.158;5.588;2023-05-07T01:12:30;10.07;;;7.97;;
22250;SDS011;59348;52.158;5.588;2023-05-07T01:14:59;11.00;;;7.68;;
22250;SDS011;59348;52.158;5.588;2023-05-07T01:17:26;8.73;;;7.70;;
22250;SDS011;59348;52.158;5.588;2023-05-07T01:19:53;13.98;;;8.07;;
22250;SDS011;59348;52.158;5.588;2023-05-07T01:22:27;9.57;;;7.90;;
22250;SDS011;59348;52.158;5.588;2023-05-07T01:24:56;9.85;;;7.90;;
22250;SDS011;59348;52.158;5.588;2023-05-07T01:27:24;9.13;;;7.60;;
22250;SDS011;59348;52.158;5.588;2023-05-07T01:29:51;9.80;;;8.68;;
22250;SDS011;59348;52.158;5.588;2023-05-07T01:32:20;11.05;;;7.85;;
22250;SDS011;59348;52.158;5.588;2023-05-07T01:34:48;9.73;;;8.43;;
22250;SDS011;59348;52.158;5.588;2023-05-07T01:37:16;10.82;;;8.25;;
22250;SDS011;59348;52.158;5.588;2023-05-07T01:39:44;10.57;;;8.48;;
22250;SDS011;59348;52.158;5.588;2023-05-07T01:42:12;9.70;;;8.50;;
22250;SDS011;59348;52.158;5.588;2023-05-07T01:44:39;10.52;;;8.35;;
22250;SDS011;59348;52.158;5.588;2023-05-07T01:47:06;11.10;;;8.38;;
22250;SDS011;59348;52.158;5.588;2023-05-07T01:49:34;12.20;;;8.77;;
22250;SDS011;59348;52.158;5.588;2023-05-07T01:52:01;9.68;;;8.52;;
22250;SDS011;59348;52.158;5.588;2023-05-07T01:54:28;8.90;;;8.00;;
22250;SDS011;59348;52.158;5.588;2023-05-07T01:56:57;8.88;;;7.97;;
22250;SDS011;59348;52.158;5.588;2023-05-07T01:59:24;11.30;;;7.85;;
22250;SDS011;59348;52.158;5.588;2023-05-07T02:01:52;10.10;;;8.60;;
22250;SDS011;59348;52.158;5.588;2023-05-07T02:04:19;8.63;;;7.53;;
22250;SDS011;59348;52.158;5.588;2023-05-07T02:06:46;8.93;;;8.00;;
22250;SDS011;59348;52.158;5.588;2023-05-07T02:09:13;11.80;;;8.50;;
22250;SDS011;59348;52.158;5.588;2023-05-07T02:11:41;10.20;;;8.85;;
22250;SDS011;59348;52.158;5.588;2023-05-07T02:14:09;11.07;;;8.68;;
22250;SDS011;59348;52.158;5.588;2023-05-07T02:16:36;9.73;;;7.93;;
22250;SDS011;59348;52.158;5.588;2023-05-07T02:19:03;7.95;;;7.15;;
22250;SDS011;59348;52.158;5.588;2023-05-07T02:21:31;10.95;;;8.15;;
22250;SDS011;59348;52.158;5.588;2023-05-07T02:23:58;10.02;;;7.90;;
22250;SDS011;59348;52.158;5.588;2023-05-07T02:26:25;8.95;;;8.05;;
22250;SDS011;59348;52.158;5.588;2023-05-07T02:28:52;11.70;;;8.70;;
22250;SDS011;59348;52.158;5.588;2023-05-07T02:31:21;10.50;;;8.60;;
22250;SDS011;59348;52.158;5.588;2023-05-07T02:33:48;13.75;;;8.70;;
22250;SDS011;59348;52.158;5.588;2023-05-07T02:36:15;10.95;;;8.10;;
22250;SDS011;59348;52.158;5.588;2023-05-07T02:38:42;10.15;;;7.63;;
22250;SDS011;59348;52.158;5.588;2023-05-07T02:41:10;9.93;;;8.15;;
22250;SDS011;59348;52.158;5.588;2023-05-07T02:43:37;9.10;;;8.10;;
22250;SDS011;59348;52.158;5.588;2023-05-07T02:46:04;9.07;;;7.68;;
22250;SDS011;59348;52.158;5.588;2023-05-07T02:48:33;9.82;;;8.27;;
22250;SDS011;59348;52.158;5.588;2023-05-07T02:51:01;8.68;;;7.72;;
22250;SDS011;59348;52.158;5.588;2023-05-07T02:53:28;11.27;;;8.25;;
22250;SDS011;59348;52.158;5.588;2023-05-07T02:55:55;8.93;;;7.95;;
22250;SDS011;59348;52.158;5.588;2023-05-07T02:58:23;8.55;;;7.72;;
22250;SDS011;59348;52.158;5.588;2023-05-07T03:00:50;11.73;;;8.60;;
22250;SDS011;59348;52.158;5.588;2023-05-07T03:03:18;10.02;;;8.65;;
22250;SDS011;59348;52.158;5.588;2023-05-07T03:05:46;10.63;;;9.02;;
22250;SDS011;59348;52.158;5.588;2023-05-07T03:08:13;11.27;;;8.00;;
22250;SDS011;59348;52.158;5.588;2023-05-07T03:10:41;9.38;;;7.90;;
22250;SDS011;59348;52.158;5.588;2023-05-07T03:13:08;9.90;;;8.90;;
22250;SDS011;59348;52.158;5.588;2023-05-07T03:15:35;9.60;;;8.60;;
22250;SDS011;59348;52.158;5.588;2023-05-07T03:18:02;10.02;;;8.98;;
22250;SDS011;59348;52.158;5.588;2023-05-07T03:20:30;10.40;;;8.63;;
22250;SDS011;59348;52.158;5.588;2023-05-07T03:22:59;12.32;;;10.10;;
22250;SDS011;59348;52.158;5.588;2023-05-07T03:25:26;10.65;;;9.65;;
22250;SDS011;59348;52.158;5.588;2023-05-07T03:27:55;12.57;;;10.18;;
22250;SDS011;59348;52.158;5.588;2023-05-07T03:30:22;12.85;;;11.00;;
22250;SDS011;59348;52.158;5.588;2023-05-07T03:32:49;14.90;;;11.50;;
22250;SDS011;59348;52.158;5.588;2023-05-07T03:35:16;11.85;;;10.60;;
22250;SDS011;59348;52.158;5.588;2023-05-07T03:37:43;13.20;;;10.57;;
22250;SDS011;59348;52.158;5.588;2023-05-07T03:40:12;13.13;;;10.18;;
22250;SDS011;59348;52.158;5.588;2023-05-07T03:42:40;13.43;;;10.25;;
22250;SDS011;59348;52.158;5.588;2023-05-07T03:45:07;11.23;;;9.77;;
22250;SDS011;59348;52.158;5.588;2023-05-07T03:47:35;11.88;;;10.63;;
22250;SDS011;59348;52.158;5.588;2023-05-07T03:50:02;12.90;;;10.68;;
22250;SDS011;59348;52.158;5.588;2023-05-07T03:52:29;12.60;;;10.52;;
22250;SDS011;59348;52.158;5.588;2023-05-07T03:54:57;11.68;;;10.40;;
22250;SDS011;59348;52.158;5.588;2023-05-07T03:57:25;14.45;;;10.52;;
22250;SDS011;59348;52.158;5.588;2023-05-07T03:59:52;13.30;;;11.07;;
22250;SDS011;59348;52.158;5.588;2023-05-07T04:02:20;12.32;;;10.57;;
22250;SDS011;59348;52.158;5.588;2023-05-07T04:04:48;15.32;;;10.60;;
22250;SDS011;59348;52.158;5.588;2023-05-07T04:07:15;13.82;;;11.10;;
22250;SDS011;59348;52.158;5.588;2023-05-07T04:09:42;15.73;;;10.82;;
22250;SDS011;59348;52.158;5.588;2023-05-07T04:12:09;13.35;;;11.35;;
22250;SDS011;59348;52.158;5.588;2023-05-07T04:14:38;12.73;;;9.88;;
22250;SDS011;59348;52.158;5.588;2023-05-07T04:17:05;14.30;;;11.00;;
22250;SDS011;59348;52.158;5.588;2023-05-07T04:19:34;13.77;;;11.63;;
22250;SDS011;59348;52.158;5.588;2023-05-07T04:22:02;18.63;;;12.15;;
22250;SDS011;59348;52.158;5.588;2023-05-07T04:24:30;15.90;;;12.57;;
22250;SDS011;59348;52.158;5.588;2023-05-07T04:26:58;18.52;;;13.27;;
22250;SDS011;59348;52.158;5.588;2023-05-07T04:29:26;15.63;;;11.43;;
22250;SDS011;59348;52.158;5.588;2023-05-07T04:31:55;17.52;;;13.13;;
22250;SDS011;59348;52.158;5.588;2023-05-07T04:34:23;13.88;;;11.80;;
22250;SDS011;59348;52.158;5.588;2023-05-07T04:36:51;13.98;;;12.13;;
22250;SDS011;59348;52.158;5.588;2023-05-07T04:39:18;14.68;;;12.52;;
22250;SDS011;59348;52.158;5.588;2023-05-07T04:41:45;15.57;;;13.10;;
22250;SDS011;59348;52.158;5.588;2023-05-07T04:44:12;18.77;;;13.57;;
22250;SDS011;59348;52.158;5.588;2023-05-07T04:46:39;14.57;;;12.90;;
22250;SDS011;59348;52.158;5.588;2023-05-07T04:49:08;15.90;;;14.13;;
22250;SDS011;59348;52.158;5.588;2023-05-07T04:51:35;18.05;;;14.38;;
22250;SDS011;59348;52.158;5.588;2023-05-07T04:54:03;16.73;;;14.48;;
22250;SDS011;59348;52.158;5.588;2023-05-07T04:56:30;16.02;;;13.60;;
22250;SDS011;59348;52.158;5.588;2023-05-07T04:58:57;17.02;;;14.68;;
22250;SDS011;59348;52.158;5.588;2023-05-07T05:01:24;18.88;;;16.58;;
22250;SDS011;59348;52.158;5.588;2023-05-07T05:03:51;18.30;;;15.20;;
22250;SDS011;59348;52.158;5.588;2023-05-07T05:06:20;21.15;;;16.45;;
22250;SDS011;59348;52.158;5.588;2023-05-07T05:08:47;16.80;;;15.02;;
22250;SDS011;59348;52.158;5.588;2023-05-07T05:11:14;19.55;;;16.15;;
22250;SDS011;59348;52.158;5.588;2023-05-07T05:13:41;18.33;;;16.42;;
22250;SDS011;59348;52.158;5.588;2023-05-07T05:16:09;18.08;;;16.10;;
22250;SDS011;59348;52.158;5.588;2023-05-07T05:18:36;20.25;;;17.85;;
22250;SDS011;59348;52.158;5.588;2023-05-07T05:21:03;19.42;;;17.42;;
22250;SDS011;59348;52.158;5.588;2023-05-07T05:23:32;19.27;;;17.27;;
22250;SDS011;59348;52.158;5.588;2023-05-07T05:25:59;19.77;;;17.65;;
22250;SDS011;59348;52.158;5.588;2023-05-07T05:28:26;19.58;;;17.15;;
22250;SDS011;59348;52.158;5.588;2023-05-07T05:30:53;21.30;;;18.23;;
22250;SDS011;59348;52.158;5.588;2023-05-07T05:33:20;20.80;;;17.90;;
22250;SDS011;59348;52.158;5.588;2023-05-07T05:35:49;20.73;;;18.52;;
22250;SDS011;59348;52.158;5.588;2023-05-07T05:38:16;20.10;;;18.05;;
22250;SDS011;59348;52.158;5.588;2023-05-07T05:40:45;20.33;;;17.08;;
22250;SDS011;59348;52.158;5.588;2023-05-07T05:43:13;20.10;;;18.00;;
22250;SDS011;59348;52.158;5.588;2023-05-07T05:45:40;21.45;;;19.15;;
22250;SDS011;59348;52.158;5.588;2023-05-07T05:48:07;20.13;;;17.88;;
22250;SDS011;59348;52.158;5.588;2023-05-07T05:50:34;18.67;;;16.77;;
22250;SDS011;59348;52.158;5.588;2023-05-07T05:53:02;20.15;;;18.15;;
22250;SDS011;59348;52.158;5.588;2023-05-07T05:55:29;18.83;;;16.85;;
22250;SDS011;59348;52.158;5.588;2023-05-07T05:57:58;20.27;;;18.08;;
22250;SDS011;59348;52.158;5.588;2023-05-07T06:00:26;20.85;;;18.65;;
22250;SDS011;59348;52.158;5.588;2023-05-07T06:02:53;21.25;;;19.05;;
22250;SDS011;59348;52.158;5.588;2023-05-07T06:05:20;19.38;;;17.33;;
22250;SDS011;59348;52.158;5.588;2023-05-07T06:07:47;21.02;;;18.77;;
22250;SDS011;59348;52.158;5.588;2023-05-07T06:10:15;21.98;;;18.33;;
22250;SDS011;59348;52.158;5.588;2023-05-07T06:12:42;21.50;;;18.67;;
22250;SDS011;59348;52.158;5.588;2023-05-07T06:15:11;19.83;;;17.88;;
22250;SDS011;59348;52.158;5.588;2023-05-07T06:17:38;18.90;;;17.00;;
22250;SDS011;59348;52.158;5.588;2023-05-07T06:20:05;19.65;;;17.65;;
22250;SDS011;59348;52.158;5.588;2023-05-07T06:22:33;20.27;;;18.13;;
22250;SDS011;59348;52.158;5.588;2023-05-07T06:25:00;20.40;;;18.30;;
22250;SDS011;59348;52.158;5.588;2023-05-07T06:27:27;20.60;;;18.40;;
22250;SDS011;59348;52.158;5.588;2023-05-07T06:29:54;20.30;;;18.08;;
22250;SDS011;59348;52.158;5.588;2023-05-07T06:32:23;20.55;;;18.38;;
22250;SDS011;59348;52.158;5.588;2023-05-07T06:34:50;19.20;;;17.33;;
22250;SDS011;59348;52.158;5.588;2023-05-07T06:37:17;20.88;;;18.77;;
22250;SDS011;59348;52.158;5.588;2023-05-07T06:39:44;20.70;;;18.20;;
22250;SDS011;59348;52.158;5.588;2023-05-07T06:42:12;21.02;;;18.77;;
22250;SDS011;59348;52.158;5.588;2023-05-07T06:44:39;20.00;;;17.92;;
22250;SDS011;59348;52.158;5.588;2023-05-07T06:47:06;19.45;;;17.55;;
22250;SDS011;59348;52.158;5.588;2023-05-07T06:49:34;20.30;;;17.90;;
22250;SDS011;59348;52.158;5.588;2023-05-07T06:52:02;19.83;;;17.42;;
22250;SDS011;59348;52.158;5.588;2023-05-07T06:54:29;19.75;;;17.83;;
22250;SDS011;59348;52.158;5.588;2023-05-07T06:56:56;19.00;;;17.10;;
22250;SDS011;59348;52.158;5.588;2023-05-07T06:59:23;19.58;;;17.67;;
22250;SDS011;59348;52.158;5.588;2023-05-07T07:01:50;23.17;;;18.73;;
22250;SDS011;59348;52.158;5.588;2023-05-07T07:04:17;23.15;;;17.95;;
22250;SDS011;59348;52.158;5.588;2023-05-07T07:06:48;20.42;;;18.15;;
22250;SDS011;59348;52.158;5.588;2023-05-07T07:09:15;20.20;;;17.98;;
22250;SDS011;59348;52.158;5.588;2023-05-07T07:11:43;20.75;;;18.65;;
22250;SDS011;59348;52.158;5.588;2023-05-07T07:14:10;22.48;;;18.42;;
22250;SDS011;59348;52.158;5.588;2023-05-07T07:16:38;20.45;;;18.45;;
22250;SDS011;59348;52.158;5.588;2023-05-07T07:19:05;21.02;;;18.88;;
22250;SDS011;59348;52.158;5.588;2023-05-07T07:21:32;20.98;;;18.88;;
22250;SDS011;59348;52.158;5.588;2023-05-07T07:24:01;19.95;;;18.05;;
22250;SDS011;59348;52.158;5.588;2023-05-07T07:26:28;21.60;;;19.40;;
22250;SDS011;59348;52.158;5.588;2023-05-07T07:28:56;21.27;;;19.10;;
22250;SDS011;59348;52.158;5.588;2023-05-07T07:31:23;20.83;;;18.83;;
22250;SDS011;59348;52.158;5.588;2023-05-07T07:33:50;20.73;;;18.45;;
22250;SDS011;59348;52.158;5.588;2023-05-07T07:36:18;21.02;;;18.83;;
22250;SDS011;59348;52.158;5.588;2023-05-07T07:38:45;20.58;;;18.38;;
22250;SDS011;59348;52.158;5.588;2023-05-07T07:41:13;20.13;;;18.05;;
22250;SDS011;59348;52.158;5.588;2023-05-07T07:43:41;20.50;;;18.50;;
22250;SDS011;59348;52.158;5.588;2023-05-07T07:46:08;21.83;;;19.48;;
22250;SDS011;59348;52.158;5.588;2023-05-07T07:48:35;22.00;;;19.70;;
22250;SDS011;59348;52.158;5.588;2023-05-07T07:51:02;21.40;;;19.08;;
22250;SDS011;59348;52.158;5.588;2023-05-07T07:53:29;20.33;;;18.23;;
22250;SDS011;59348;52.158;5.588;2023-05-07T07:55:57;20.88;;;18.67;;
22250;SDS011;59348;52.158;5.588;2023-05-07T07:58:25;20.33;;;18.27;;
22250;SDS011;59348;52.158;5.588;2023-05-07T08:00:52;20.33;;;18.33;;
22250;SDS011;59348;52.158;5.588;2023-05-07T08:03:20;19.75;;;17.50;;
22250;SDS011;59348;52.158;5.588;2023-05-07T08:05:48;20.73;;;18.55;;
22250;SDS011;59348;52.158;5.588;2023-05-07T08:08:16;21.50;;;19.23;;
22250;SDS011;59348;52.158;5.588;2023-05-07T08:10:43;20.75;;;18.33;;
22250;SDS011;59348;52.158;5.588;2023-05-07T08:13:10;20.85;;;18.88;;
22250;SDS011;59348;52.158;5.588;2023-05-07T08:15:39;21.63;;;19.33;;
22250;SDS011;59348;52.158;5.588;2023-05-07T08:18:06;19.83;;;17.73;;
22250;SDS011;59348;52.158;5.588;2023-05-07T08:20:33;19.65;;;17.65;;
22250;SDS011;59348;52.158;5.588;2023-05-07T08:23:04;19.48;;;17.25;;
22250;SDS011;59348;52.158;5.588;2023-05-07T08:25:32;19.70;;;17.60;;
22250;SDS011;59348;52.158;5.588;2023-05-07T08:27:59;20.38;;;17.98;;
22250;SDS011;59348;52.158;5.588;2023-05-07T08:30:28;21.23;;;18.23;;
22250;SDS011;59348;52.158;5.588;2023-05-07T08:32:56;21.42;;;17.52;;
22250;SDS011;59348;52.158;5.588;2023-05-07T08:35:23;20.25;;;18.10;;
22250;SDS011;59348;52.158;5.588;2023-05-07T08:37:52;20.45;;;17.20;;
22250;SDS011;59348;52.158;5.588;2023-05-07T08:40:19;17.80;;;15.82;;
22250;SDS011;59348;52.158;5.588;2023-05-07T08:42:48;17.50;;;15.70;;
22250;SDS011;59348;52.158;5.588;2023-05-07T08:45:16;17.92;;;16.17;;
22250;SDS011;59348;52.158;5.588;2023-05-07T08:47:44;16.88;;;15.23;;
22250;SDS011;59348;52.158;5.588;2023-05-07T08:50:13;17.63;;;15.80;;
22250;SDS011;59348;52.158;5.588;2023-05-07T08:52:40;18.75;;;16.75;;
22250;SDS011;59348;52.158;5.588;2023-05-07T08:55:07;17.27;;;15.48;;
22250;SDS011;59348;52.158;5.588;2023-05-07T08:57:35;18.48;;;16.50;;
22250;SDS011;59348;52.158;5.588;2023-05-07T09:00:02;18.88;;;16.92;;
22250;SDS011;59348;52.158;5.588;2023-05-07T09:02:29;21.13;;;18.10;;
22250;SDS011;59348;52.158;5.588;2023-05-07T09:04:57;19.55;;;17.42;;
22250;SDS011;59348;52.158;5.588;2023-05-07T09:07:26;19.50;;;17.40;;
22250;SDS011;59348;52.158;5.588;2023-05-07T09:09:53;20.70;;;17.35;;
22250;SDS011;59348;52.158;5.588;2023-05-07T09:12:22;20.27;;;17.65;;
22250;SDS011;59348;52.158;5.588;2023-05-07T09:14:49;19.88;;;17.83;;
22250;SDS011;59348;52.158;5.588;2023-05-07T09:17:16;21.15;;;18.70;;
22250;SDS011;59348;52.158;5.588;2023-05-07T09:19:44;20.90;;;18.52;;
22250;SDS011;59348;52.158;5.588;2023-05-07T09:22:11;22.13;;;18.67;;
22250;SDS011;59348;52.158;5.588;2023-05-07T09:24:40;20.20;;;18.13;;
22250;SDS011;59348;52.158;5.588;2023-05-07T09:27:07;21.80;;;18.90;;
22250;SDS011;59348;52.158;5.588;2023-05-07T09:29:38;21.83;;;19.58;;
22250;SDS011;59348;52.158;5.588;2023-05-07T09:32:05;21.02;;;18.58;;
22250;SDS011;59348;52.158;5.588;2023-05-07T09:34:33;21.65;;;19.27;;
22250;SDS011;59348;52.158;5.588;2023-05-07T09:37:01;21.42;;;19.23;;
22250;SDS011;59348;52.158;5.588;2023-05-07T09:39:39;22.10;;;19.70;;
22250;SDS011;59348;52.158;5.588;2023-05-07T09:42:06;21.65;;;19.35;;
22250;SDS011;59348;52.158;5.588;2023-05-07T09:44:34;23.95;;;19.63;;
22250;SDS011;59348;52.158;5.588;2023-05-07T09:47:01;22.85;;;19.60;;
22250;SDS011;59348;52.158;5.588;2023-05-07T09:49:33;25.00;;;20.73;;
22250;SDS011;59348;52.158;5.588;2023-05-07T09:52:00;22.45;;;20.05;;
22250;SDS011;59348;52.158;5.588;2023-05-07T09:54:28;22.25;;;19.85;;
22250;SDS011;59348;52.158;5.588;2023-05-07T09:56:57;26.10;;;21.27;;
22250;SDS011;59348;52.158;5.588;2023-05-07T09:59:27;24.17;;;20.83;;
22250;SDS011;59348;52.158;5.588;2023-05-07T10:01:55;23.77;;;20.70;;
22250;SDS011;59348;52.158;5.588;2023-05-07T10:04:23;25.85;;;22.27;;
22250;SDS011;59348;52.158;5.588;2023-05-07T10:06:51;23.50;;;21.00;;
22250;SDS011;59348;52.158;5.588;2023-05-07T10:09:20;23.23;;;20.80;;
22250;SDS011;59348;52.158;5.588;2023-05-07T10:11:47;23.67;;;21.13;;
22250;SDS011;59348;52.158;5.588;2023-05-07T10:14:17;24.73;;;21.15;;
22250;SDS011;59348;52.158;5.588;2023-05-07T10:16:44;22.95;;;20.58;;
22250;SDS011;59348;52.158;5.588;2023-05-07T10:19:12;24.00;;;21.23;;
22250;SDS011;59348;52.158;5.588;2023-05-07T10:21:43;28.05;;;22.00;;
22250;SDS011;59348;52.158;5.588;2023-05-07T10:24:12;25.77;;;20.95;;
22250;SDS011;59348;52.158;5.588;2023-05-07T10:26:44;22.40;;;20.10;;
22250;SDS011;59348;52.158;5.588;2023-05-07T10:29:13;23.13;;;20.73;;
22250;SDS011;59348;52.158;5.588;2023-05-07T10:31:47;25.33;;;22.42;;
22250;SDS011;59348;52.158;5.588;2023-05-07T10:34:16;24.75;;;21.63;;
22250;SDS011;59348;52.158;5.588;2023-05-07T10:36:45;24.38;;;21.77;;
22250;SDS011;59348;52.158;5.588;2023-05-07T10:39:12;25.00;;;22.30;;
22250;SDS011;59348;52.158;5.588;2023-05-07T10:41:40;23.13;;;20.70;;
22250;SDS011;59348;52.158;5.588;2023-05-07T10:44:07;24.08;;;21.23;;
22250;SDS011;59348;52.158;5.588;2023-05-07T10:46:34;22.98;;;20.60;;
22250;SDS011;59348;52.158;5.588;2023-05-07T10:49:10;25.30;;;21.70;;
22250;SDS011;59348;52.158;5.588;2023-05-07T10:51:37;22.75;;;20.45;;
22250;SDS011;59348;52.158;5.588;2023-05-07T10:56:47;23.70;;;20.92;;
22250;SDS011;59348;52.158;5.588;2023-05-07T11:01:59;21.70;;;18.88;;
22250;SDS011;59348;52.158;5.588;2023-05-07T11:04:29;22.42;;;20.05;;
22250;SDS011;59348;52.158;5.588;2023-05-07T11:09:53;24.42;;;20.67;;
22250;SDS011;59348;52.158;5.588;2023-05-07T11:15:06;21.80;;;19.48;;
22250;SDS011;59348;52.158;5.588;2023-05-07T11:17:33;23.45;;;20.52;;
22250;SDS011;59348;52.158;5.588;2023-05-07T11:20:02;22.20;;;19.90;;
22250;SDS011;59348;52.158;5.588;2023-05-07T11:22:35;24.02;;;19.48;;
22250;SDS011;59348;52.158;5.588;2023-05-07T11:25:05;22.52;;;20.15;;
22250;SDS011;59348;52.158;5.588;2023-05-07T11:27:33;21.50;;;19.20;;
22250;SDS011;59348;52.158;5.588;2023-05-07T11:30:00;23.48;;;20.88;;
22250;SDS011;59348;52.158;5.588;2023-05-07T11:32:28;24.85;;;22.17;;
22250;SDS011;59348;52.158;5.588;2023-05-07T11:34:56;23.20;;;20.90;;
22250;SDS011;59348;52.158;5.588;2023-05-07T11:37:25;24.02;;;20.88;;
22250;SDS011;59348;52.158;5.588;2023-05-07T11:40:02;23.25;;;19.83;;
22250;SDS011;59348;52.158;5.588;2023-05-07T11:42:30;23.42;;;20.73;;
22250;SDS011;59348;52.158;5.588;2023-05-07T11:44:58;23.70;;;21.20;;
22250;SDS011;59348;52.158;5.588;2023-05-07T11:47:25;22.98;;;19.98;;
22250;SDS011;59348;52.158;5.588;2023-05-07T11:49:53;21.15;;;18.98;;
22250;SDS011;59348;52.158;5.588;2023-05-07T11:52:21;20.50;;;18.48;;
22250;SDS011;59348;52.158;5.588;2023-05-07T11:54:50;21.63;;;19.17;;
22250;SDS011;59348;52.158;5.588;2023-05-07T11:57:18;21.55;;;19.23;;
22250;SDS011;59348;52.158;5.588;2023-05-07T11:59:45;21.17;;;18.92;;
22250;SDS011;59348;52.158;5.588;2023-05-07T12:02:13;22.63;;;17.90;;
22250;SDS011;59348;52.158;5.588;2023-05-07T12:04:40;22.90;;;18.55;;
22250;SDS011;59348;52.158;5.588;2023-05-07T12:07:10;21.05;;;18.77;;
22250;SDS011;59348;52.158;5.588;2023-05-07T12:09:38;19.10;;;16.75;;
22250;SDS011;59348;52.158;5.588;2023-05-07T12:12:07;19.92;;;17.92;;
22250;SDS011;59348;52.158;5.588;2023-05-07T12:14:37;19.50;;;17.40;;
22250;SDS011;59348;52.158;5.588;2023-05-07T12:17:05;22.15;;;18.58;;
22250;SDS011;59348;52.158;5.588;2023-05-07T12:19:32;20.90;;;18.10;;
22250;SDS011;59348;52.158;5.588;2023-05-07T12:22:00;22.38;;;18.58;;
22250;SDS011;59348;52.158;5.588;2023-05-07T12:24:28;23.30;;;19.35;;
22250;SDS011;59348;52.158;5.588;2023-05-07T12:26:55;24.30;;;19.63;;
22250;SDS011;59348;52.158;5.588;2023-05-07T12:29:24;24.17;;;18.70;;
22250;SDS011;59348;52.158;5.588;2023-05-07T12:31:51;17.63;;;15.73;;
22250;SDS011;59348;52.158;5.588;2023-05-07T12:34:19;20.30;;;18.10;;
22250;SDS011;59348;52.158;5.588;2023-05-07T12:36:46;18.50;;;16.48;;
22250;SDS011;59348;52.158;5.588;2023-05-07T12:39:14;22.35;;;17.42;;
22250;SDS011;59348;52.158;5.588;2023-05-07T12:44:29;21.17;;;18.75;;
22250;SDS011;59348;52.158;5.588;2023-05-07T12:46:56;20.80;;;17.90;;
22250;SDS011;59348;52.158;5.588;2023-05-07T12:49:23;22.92;;;18.42;;
22250;SDS011;59348;52.158;5.588;2023-05-07T12:51:50;20.92;;;18.13;;
22250;SDS011;59348;52.158;5.588;2023-05-07T12:54:27;20.35;;;17.73;;
22250;SDS011;59348;52.158;5.588;2023-05-07T12:56:59;21.30;;;18.33;;
22250;SDS011;59348;52.158;5.588;2023-05-07T12:59:31;21.65;;;18.73;;
22250;SDS011;59348;52.158;5.588;2023-05-07T13:01:59;21.33;;;18.50;;
22250;SDS011;59348;52.158;5.588;2023-05-07T13:04:27;18.98;;;17.02;;
22250;SDS011;59348;52.158;5.588;2023-05-07T13:06:54;19.52;;;17.52;;
22250;SDS011;59348;52.158;5.588;2023-05-07T13:09:21;18.33;;;15.65;;
22250;SDS011;59348;52.158;5.588;2023-05-07T13:11:48;19.80;;;16.77;;
22250;SDS011;59348;52.158;5.588;2023-05-07T13:14:16;18.25;;;16.27;;
22250;SDS011;59348;52.158;5.588;2023-05-07T13:16:47;19.13;;;16.08;;
22250;SDS011;59348;52.158;5.588;2023-05-07T13:19:14;20.10;;;18.00;;
22250;SDS011;59348;52.158;5.588;2023-05-07T13:21:42;19.83;;;16.70;;
22250;SDS011;59348;52.158;5.588;2023-05-07T13:24:09;19.77;;;16.95;;
22250;SDS011;59348;52.158;5.588;2023-05-07T13:26:36;18.73;;;16.77;;
22250;SDS011;59348;52.158;5.588;2023-05-07T13:29:04;19.83;;;17.73;;
22250;SDS011;59348;52.158;5.588;2023-05-07T13:31:31;18.30;;;16.02;;
22250;SDS011;59348;52.158;5.588;2023-05-07T13:34:00;18.00;;;15.05;;
22250;SDS011;59348;52.158;5.588;2023-05-07T13:36:27;17.50;;;13.95;;
22250;SDS011;59348;52.158;5.588;2023-05-07T13:38:57;17.27;;;15.23;;
22250;SDS011;59348;52.158;5.588;2023-05-07T13:41:25;20.95;;;14.68;;
22250;SDS011;59348;52.158;5.588;2023-05-07T13:43:52;16.65;;;14.35;;
22250;SDS011;59348;52.158;5.588;2023-05-07T13:46:20;15.80;;;12.95;;
22250;SDS011;59348;52.158;5.588;2023-05-07T13:48:47;14.88;;;12.50;;
22250;SDS011;59348;52.158;5.588;2023-05-07T13:51:16;12.27;;;10.70;;
22250;SDS011;59348;52.158;5.588;2023-05-07T13:53:44;15.25;;;11.77;;
22250;SDS011;59348;52.158;5.588;2023-05-07T13:56:11;12.55;;;10.82;;
22250;SDS011;59348;52.158;5.588;2023-05-07T13:58:39;12.25;;;11.05;;
22250;SDS011;59348;52.158;5.588;2023-05-07T14:01:06;13.80;;;11.43;;
22250;SDS011;59348;52.158;5.588;2023-05-07T14:03:33;12.77;;;11.18;;
22250;SDS011;59348;52.158;5.588;2023-05-07T14:06:02;13.40;;;10.63;;
22250;SDS011;59348;52.158;5.588;2023-05-07T14:08:31;13.70;;;10.40;;
22250;SDS011;59348;52.158;5.588;2023-05-07T14:10:58;15.23;;;12.93;;
22250;SDS011;59348;52.158;5.588;2023-05-07T14:13:25;14.77;;;11.48;;
22250;SDS011;59348;52.158;5.588;2023-05-07T14:15:52;13.52;;;11.60;;
22250;SDS011;59348;52.158;5.588;2023-05-07T14:18:20;15.68;;;12.60;;
22250;SDS011;59348;52.158;5.588;2023-05-07T14:20:47;13.88;;;12.45;;
22250;SDS011;59348;52.158;5.588;2023-05-07T14:23:14;15.55;;;11.70;;
22250;SDS011;59348;52.158;5.588;2023-05-07T14:25:44;14.63;;;11.90;;
22250;SDS011;59348;52.158;5.588;2023-05-07T14:28:12;16.02;;;12.07;;
22250;SDS011;59348;52.158;5.588;2023-05-07T14:30:39;16.75;;;13.45;;
22250;SDS011;59348;52.158;5.588;2023-05-07T14:33:07;14.38;;;12.45;;
22250;SDS011;59348;52.158;5.588;2023-05-07T14:35:34;17.23;;;13.30;;
22250;SDS011;59348;52.158;5.588;2023-05-07T14:38:01;14.20;;;12.80;;
22250;SDS011;59348;52.158;5.588;2023-05-07T14:40:28;15.52;;;13.90;;
22250;SDS011;59348;52.158;5.588;2023-05-07T14:42:57;16.73;;;14.80;;